EJU86UC EDDB-LCLK
Flight info
| Callsign | EJU86UC |
|---|---|
| Flight time | 3h 30m |
| Altitude | 37000 |
| Route | ARSAP3Z ARSAP DCT OLUMA DCT KULUV T710 VELAB L616 PEKOT L867 REGLI DCT SOPAV DCT REVMA DCT BALAP DCT PARAK DCT NISVA DCT RODIP UN131 KULAR UT39 TOMBI M855 DASNI M601 BONEK |
| Aircraft | A320/M-SDE2E3FGHIJ1RWXYZ/LB1 |
Departure
| Time | 2026-02-17 11:36 |
|---|---|
| Airport | Berlin Brandenburg Airport (EDDB) |
Arrival
| Time | 2026-02-17 15:07 |
|---|---|
| Airport | Larnaca International Airport (LCLK) |
| Time | Latitude | Longitude | Altitude | Speed | Heading |
|---|---|---|---|---|---|
| 2026-02-17 10:27 | 52.36138 | 13.50752 | 155 ft | 0 kts | 69° |
| 2026-02-17 11:15 | 52.36137 | 13.50748 | 154 ft | 1 kts | 69° |
| 2026-02-17 11:16 | 52.36131 | 13.50722 | 154 ft | 3 kts | 69° |
| 2026-02-17 11:16 | 52.36124 | 13.50691 | 154 ft | 3 kts | 69° |
| 2026-02-17 11:16 | 52.36117 | 13.50661 | 154 ft | 3 kts | 77° |
| 2026-02-17 11:16 | 52.36115 | 13.50630 | 154 ft | 3 kts | 106° |
| 2026-02-17 11:17 | 52.36123 | 13.50605 | 154 ft | 3 kts | 149° |
| 2026-02-17 11:17 | 52.36129 | 13.50599 | 154 ft | 0 kts | 159° |
| 2026-02-17 11:23 | 52.36083 | 13.50629 | 154 ft | 11 kts | 158° |
| 2026-02-17 11:23 | 52.36008 | 13.50676 | 154 ft | 12 kts | 159° |
| 2026-02-17 11:23 | 52.35930 | 13.50726 | 154 ft | 13 kts | 159° |
| 2026-02-17 11:23 | 52.35844 | 13.50774 | 154 ft | 11 kts | 173° |
| 2026-02-17 11:24 | 52.35793 | 13.50710 | 154 ft | 9 kts | 246° |
| 2026-02-17 11:24 | 52.35768 | 13.50603 | 154 ft | 11 kts | 249° |
| 2026-02-17 11:24 | 52.35726 | 13.50427 | 154 ft | 21 kts | 249° |
| 2026-02-17 11:24 | 52.35680 | 13.50234 | 154 ft | 12 kts | 249° |
| 2026-02-17 11:25 | 52.35719 | 13.50120 | 154 ft | 17 kts | 339° |
| 2026-02-17 11:25 | 52.35840 | 13.50043 | 154 ft | 20 kts | 339° |
| 2026-02-17 11:25 | 52.35962 | 13.49966 | 154 ft | 12 kts | 339° |
| 2026-02-17 11:25 | 52.36005 | 13.49907 | 154 ft | 6 kts | 270° |
| 2026-02-17 11:26 | 52.35992 | 13.49845 | 154 ft | 2 kts | 248° |
| 2026-02-17 11:26 | 52.35991 | 13.49842 | 154 ft | 0 kts | 248° |
| 2026-02-17 11:31 | 52.35987 | 13.49825 | 154 ft | 7 kts | 248° |
| 2026-02-17 11:31 | 52.35931 | 13.49788 | 154 ft | 11 kts | 159° |
| 2026-02-17 11:31 | 52.35879 | 13.49822 | 154 ft | 13 kts | 159° |
| 2026-02-17 11:32 | 52.35799 | 13.49872 | 154 ft | 13 kts | 159° |
| 2026-02-17 11:32 | 52.35729 | 13.49917 | 154 ft | 4 kts | 155° |
| 2026-02-17 11:32 | 52.35705 | 13.49966 | 154 ft | 8 kts | 110° |
| 2026-02-17 11:32 | 52.35678 | 13.50019 | 154 ft | 9 kts | 152° |
| 2026-02-17 11:33 | 52.35612 | 13.50060 | 154 ft | 10 kts | 159° |
| 2026-02-17 11:33 | 52.35565 | 13.50116 | 154 ft | 9 kts | 109° |
| 2026-02-17 11:33 | 52.35574 | 13.50192 | 154 ft | 8 kts | 69° |
| 2026-02-17 11:33 | 52.35600 | 13.50301 | 154 ft | 12 kts | 69° |
| 2026-02-17 11:34 | 52.35632 | 13.50437 | 154 ft | 14 kts | 69° |
| 2026-02-17 11:34 | 52.35670 | 13.50595 | 154 ft | 15 kts | 68° |
| 2026-02-17 11:34 | 52.35669 | 13.50724 | 154 ft | 10 kts | 134° |
| 2026-02-17 11:35 | 52.35544 | 13.50640 | 154 ft | 14 kts | 219° |
| 2026-02-17 11:35 | 52.35455 | 13.50533 | 154 ft | 18 kts | 200° |
| 2026-02-17 11:35 | 52.35395 | 13.50433 | 154 ft | 14 kts | 249° |
| 2026-02-17 11:35 | 52.35304 | 13.50049 | 154 ft | 70 kts | 249° |
| 2026-02-17 11:36 | 52.35049 | 13.48974 | 157 ft | 131 kts | 249° |
| 2026-02-17 11:36 | 52.34675 | 13.47364 | 355 ft | 159 kts | 250° |
| 2026-02-17 11:36 | 52.34268 | 13.45691 | 1031 ft | 158 kts | 243° |
| 2026-02-17 11:36 | 52.33666 | 13.44167 | 1592 ft | 166 kts | 231° |
| 2026-02-17 11:37 | 52.32845 | 13.42669 | 1864 ft | 187 kts | 229° |
| 2026-02-17 11:37 | 52.31923 | 13.40998 | 2156 ft | 207 kts | 230° |
| 2026-02-17 11:37 | 52.30931 | 13.39194 | 2687 ft | 217 kts | 230° |
| 2026-02-17 11:37 | 52.29919 | 13.37354 | 3414 ft | 219 kts | 231° |
| 2026-02-17 11:38 | 52.28898 | 13.35493 | 4118 ft | 221 kts | 231° |
| 2026-02-17 11:38 | 52.27865 | 13.33605 | 4779 ft | 226 kts | 232° |
| 2026-02-17 11:38 | 52.26753 | 13.31624 | 5104 ft | 248 kts | 230° |
| 2026-02-17 11:39 | 52.23966 | 13.28015 | 6393 ft | 272 kts | 203° |
| 2026-02-17 11:39 | 52.22017 | 13.27538 | 6707 ft | 301 kts | 177° |
| 2026-02-17 11:39 | 52.19947 | 13.28750 | 7010 ft | 328 kts | 145° |
| 2026-02-17 11:39 | 52.18461 | 13.31594 | 7626 ft | 337 kts | 115° |
| 2026-02-17 11:40 | 52.17940 | 13.35305 | 8336 ft | 339 kts | 90° |
| 2026-02-17 11:40 | 52.17956 | 13.39162 | 9092 ft | 342 kts | 85° |
| 2026-02-17 11:40 | 52.18129 | 13.43001 | 9792 ft | 346 kts | 83° |
| 2026-02-17 11:40 | 52.18370 | 13.46915 | 10509 ft | 348 kts | 82° |
| 2026-02-17 11:41 | 52.18619 | 13.50904 | 11238 ft | 350 kts | 82° |
| 2026-02-17 11:41 | 52.18842 | 13.54872 | 11933 ft | 353 kts | 83° |
| 2026-02-17 11:41 | 52.19036 | 13.58888 | 12619 ft | 356 kts | 84° |
| 2026-02-17 11:41 | 52.19207 | 13.62932 | 13299 ft | 360 kts | 84° |
| 2026-02-17 11:42 | 52.19361 | 13.67015 | 13914 ft | 363 kts | 85° |
| 2026-02-17 11:42 | 52.19509 | 13.71131 | 14510 ft | 365 kts | 85° |
| 2026-02-17 11:42 | 52.19657 | 13.75277 | 15115 ft | 368 kts | 85° |
| 2026-02-17 11:43 | 52.19951 | 13.83607 | 16288 ft | 373 kts | 85° |
| 2026-02-17 11:43 | 52.20103 | 13.87847 | 16859 ft | 376 kts | 85° |
| 2026-02-17 11:43 | 52.20259 | 13.92111 | 17436 ft | 379 kts | 85° |
| 2026-02-17 11:43 | 52.20416 | 13.96416 | 17996 ft | 382 kts | 85° |
| 2026-02-17 11:44 | 52.20571 | 14.00750 | 18489 ft | 384 kts | 85° |
| 2026-02-17 11:44 | 52.20723 | 14.05108 | 18996 ft | 387 kts | 85° |
| 2026-02-17 11:44 | 52.20873 | 14.09500 | 19515 ft | 389 kts | 85° |
| 2026-02-17 11:44 | 52.21022 | 14.13927 | 20039 ft | 392 kts | 85° |
| 2026-02-17 11:45 | 52.21171 | 14.18376 | 20541 ft | 394 kts | 85° |
| 2026-02-17 11:45 | 52.21318 | 14.22849 | 21036 ft | 396 kts | 85° |
| 2026-02-17 11:45 | 52.21464 | 14.27349 | 21528 ft | 399 kts | 85° |
| 2026-02-17 11:45 | 52.21614 | 14.31879 | 22012 ft | 401 kts | 85° |
| 2026-02-17 11:46 | 52.21763 | 14.36432 | 22498 ft | 404 kts | 85° |
| 2026-02-17 11:46 | 52.21909 | 14.41023 | 22978 ft | 406 kts | 85° |
| 2026-02-17 11:46 | 52.22053 | 14.45632 | 23420 ft | 408 kts | 85° |
| 2026-02-17 11:47 | 52.22333 | 14.54941 | 24140 ft | 413 kts | 85° |
| 2026-02-17 11:47 | 52.22469 | 14.59576 | 24476 ft | 416 kts | 85° |
| 2026-02-17 11:47 | 52.22602 | 14.64296 | 24814 ft | 418 kts | 88° |
| 2026-02-17 11:47 | 52.22432 | 14.69046 | 25141 ft | 422 kts | 97° |
| 2026-02-17 11:48 | 52.21777 | 14.73728 | 25463 ft | 425 kts | 107° |
| 2026-02-17 11:48 | 52.20653 | 14.78194 | 25777 ft | 428 kts | 117° |
| 2026-02-17 11:48 | 52.19288 | 14.82523 | 26082 ft | 431 kts | 117° |
| 2026-02-17 11:48 | 52.17920 | 14.86881 | 26395 ft | 433 kts | 117° |
| 2026-02-17 11:49 | 52.16550 | 14.91260 | 26707 ft | 435 kts | 117° |
| 2026-02-17 11:49 | 52.15177 | 14.95657 | 27026 ft | 437 kts | 117° |
| 2026-02-17 11:49 | 52.13796 | 15.00074 | 27332 ft | 439 kts | 117° |
| 2026-02-17 11:49 | 52.12407 | 15.04505 | 27625 ft | 441 kts | 117° |
| 2026-02-17 11:50 | 52.11007 | 15.08954 | 27920 ft | 443 kts | 117° |
| 2026-02-17 11:50 | 52.09594 | 15.13420 | 28203 ft | 445 kts | 117° |
| 2026-02-17 11:50 | 52.08175 | 15.17899 | 28469 ft | 447 kts | 117° |
| 2026-02-17 11:51 | 52.05310 | 15.26914 | 29011 ft | 451 kts | 117° |
| 2026-02-17 11:51 | 52.03862 | 15.31451 | 29266 ft | 453 kts | 117° |
| 2026-02-17 11:51 | 52.02411 | 15.35997 | 29523 ft | 455 kts | 117° |
| 2026-02-17 11:51 | 52.00955 | 15.40564 | 29809 ft | 456 kts | 117° |
| 2026-02-17 11:52 | 51.99497 | 15.45137 | 30019 ft | 457 kts | 117° |
| 2026-02-17 11:52 | 51.98033 | 15.49711 | 30236 ft | 458 kts | 117° |
| 2026-02-17 11:52 | 51.96558 | 15.54296 | 30435 ft | 459 kts | 117° |
| 2026-02-17 11:52 | 51.95077 | 15.58889 | 30660 ft | 460 kts | 117° |
| 2026-02-17 11:53 | 51.93591 | 15.63482 | 30895 ft | 460 kts | 118° |
| 2026-02-17 11:53 | 51.92101 | 15.68077 | 31137 ft | 461 kts | 118° |
| 2026-02-17 11:53 | 51.90612 | 15.72672 | 31382 ft | 461 kts | 117° |
| 2026-02-17 11:53 | 51.89011 | 15.77167 | 31628 ft | 461 kts | 124° |
| 2026-02-17 11:54 | 51.87204 | 15.81453 | 31892 ft | 460 kts | 125° |
| 2026-02-17 11:54 | 51.85397 | 15.85726 | 32172 ft | 460 kts | 125° |
| 2026-02-17 11:54 | 51.83589 | 15.89987 | 32420 ft | 460 kts | 125° |
| 2026-02-17 11:55 | 51.79959 | 15.98514 | 32913 ft | 461 kts | 125° |
| 2026-02-17 11:55 | 51.78143 | 16.02781 | 33142 ft | 461 kts | 125° |
| 2026-02-17 11:55 | 51.76326 | 16.07041 | 33380 ft | 461 kts | 125° |
| 2026-02-17 11:55 | 51.74502 | 16.11306 | 33613 ft | 461 kts | 125° |
| 2026-02-17 11:56 | 51.72678 | 16.15563 | 33810 ft | 462 kts | 125° |
| 2026-02-17 11:56 | 51.70849 | 16.19821 | 34020 ft | 462 kts | 126° |
| 2026-02-17 11:56 | 51.69021 | 16.24071 | 34261 ft | 460 kts | 126° |
| 2026-02-17 11:56 | 51.67197 | 16.28305 | 34455 ft | 460 kts | 126° |
| 2026-02-17 11:57 | 51.65371 | 16.32538 | 34640 ft | 460 kts | 126° |
| 2026-02-17 11:57 | 51.63548 | 16.36767 | 34736 ft | 459 kts | 126° |
| 2026-02-17 11:57 | 51.59909 | 16.45207 | 34738 ft | 460 kts | 126° |
| 2026-02-17 11:58 | 51.56241 | 16.53661 | 34750 ft | 461 kts | 126° |
| 2026-02-17 11:59 | 51.50722 | 16.66296 | 34751 ft | 459 kts | 126° |
| 2026-02-17 11:59 | 51.46469 | 16.73820 | 34746 ft | 455 kts | 144° |
| 2026-02-17 12:00 | 51.41032 | 16.78802 | 34742 ft | 449 kts | 160° |
| 2026-02-17 12:00 | 51.35274 | 16.82561 | 34739 ft | 450 kts | 160° |
| 2026-02-17 12:01 | 51.29437 | 16.86381 | 34719 ft | 450 kts | 160° |
| 2026-02-17 12:01 | 51.23628 | 16.90169 | 34711 ft | 451 kts | 160° |
| 2026-02-17 12:02 | 51.17816 | 16.93943 | 34727 ft | 451 kts | 160° |
| 2026-02-17 12:02 | 51.12002 | 16.97720 | 34735 ft | 451 kts | 160° |
| 2026-02-17 12:03 | 51.03332 | 17.03332 | 34717 ft | 450 kts | 160° |
| 2026-02-17 12:03 | 50.97522 | 17.07069 | 34722 ft | 451 kts | 160° |
| 2026-02-17 12:04 | 50.91711 | 17.10804 | 34722 ft | 451 kts | 160° |
| 2026-02-17 12:04 | 50.85901 | 17.14528 | 34721 ft | 451 kts | 160° |
| 2026-02-17 12:05 | 50.80097 | 17.18240 | 34736 ft | 450 kts | 160° |
| 2026-02-17 12:05 | 50.74298 | 17.21939 | 34721 ft | 449 kts | 160° |
| 2026-02-17 12:06 | 50.68497 | 17.25626 | 34726 ft | 449 kts | 160° |
| 2026-02-17 12:07 | 50.59803 | 17.31144 | 34717 ft | 449 kts | 160° |
| 2026-02-17 12:07 | 50.54007 | 17.34810 | 34726 ft | 449 kts | 160° |
| 2026-02-17 12:08 | 50.48209 | 17.38451 | 34701 ft | 449 kts | 161° |
| 2026-02-17 12:08 | 50.42415 | 17.42090 | 34719 ft | 449 kts | 160° |
| 2026-02-17 12:09 | 50.37071 | 17.47169 | 34726 ft | 453 kts | 141° |
| 2026-02-17 12:09 | 50.32552 | 17.54085 | 34716 ft | 454 kts | 137° |
| 2026-02-17 12:10 | 50.28069 | 17.61069 | 34723 ft | 455 kts | 137° |
| 2026-02-17 12:10 | 50.23578 | 17.68023 | 34721 ft | 455 kts | 137° |
| 2026-02-17 12:11 | 50.16820 | 17.78422 | 34716 ft | 455 kts | 137° |
| 2026-02-17 12:11 | 50.12313 | 17.85338 | 34724 ft | 455 kts | 137° |
| 2026-02-17 12:12 | 50.07836 | 17.92201 | 34728 ft | 455 kts | 137° |
| 2026-02-17 12:12 | 50.03061 | 17.98677 | 34729 ft | 450 kts | 150° |
| 2026-02-17 12:13 | 49.97489 | 18.02721 | 34725 ft | 444 kts | 163° |
| 2026-02-17 12:13 | 49.92011 | 18.07177 | 34719 ft | 450 kts | 144° |
| 2026-02-17 12:14 | 49.87419 | 18.13817 | 34702 ft | 452 kts | 138° |
| 2026-02-17 12:15 | 49.80641 | 18.24021 | 34707 ft | 454 kts | 138° |
| 2026-02-17 12:15 | 49.76105 | 18.30817 | 34710 ft | 454 kts | 138° |
| 2026-02-17 12:16 | 49.71563 | 18.37599 | 34715 ft | 454 kts | 138° |
| 2026-02-17 12:16 | 49.67795 | 18.43225 | 34725 ft | 453 kts | 138° |
| 2026-02-17 12:17 | 49.63235 | 18.50023 | 34730 ft | 453 kts | 138° |
| 2026-02-17 12:17 | 49.58696 | 18.56763 | 34731 ft | 453 kts | 139° |
| 2026-02-17 12:18 | 49.54185 | 18.63437 | 34730 ft | 452 kts | 139° |
| 2026-02-17 12:18 | 49.49213 | 18.69311 | 34723 ft | 445 kts | 155° |
| 2026-02-17 12:19 | 49.43517 | 18.72504 | 34727 ft | 437 kts | 169° |
| 2026-02-17 12:19 | 49.40530 | 18.73679 | 34728 ft | 437 kts | 169° |
| 2026-02-17 12:19 | 49.34639 | 18.75984 | 34720 ft | 437 kts | 169° |
| 2026-02-17 12:20 | 49.28748 | 18.78291 | 34713 ft | 437 kts | 169° |
| 2026-02-17 12:20 | 49.22843 | 18.80599 | 34714 ft | 438 kts | 169° |
| 2026-02-17 12:21 | 49.16983 | 18.82901 | 34717 ft | 438 kts | 169° |
| 2026-02-17 12:21 | 49.11075 | 18.85212 | 34725 ft | 438 kts | 169° |
| 2026-02-17 12:22 | 49.05168 | 18.87517 | 34706 ft | 438 kts | 169° |
| 2026-02-17 12:23 | 48.96327 | 18.90941 | 34728 ft | 437 kts | 169° |
| 2026-02-17 12:23 | 48.90437 | 18.93219 | 34723 ft | 437 kts | 169° |
| 2026-02-17 12:24 | 48.84547 | 18.95495 | 34722 ft | 436 kts | 169° |
| 2026-02-17 12:24 | 48.78660 | 18.97770 | 34710 ft | 436 kts | 169° |
| 2026-02-17 12:25 | 48.72771 | 19.00037 | 34708 ft | 437 kts | 169° |
| 2026-02-17 12:25 | 48.66879 | 19.02283 | 34712 ft | 437 kts | 169° |
| 2026-02-17 12:26 | 48.60994 | 19.04531 | 34728 ft | 436 kts | 169° |
| 2026-02-17 12:26 | 48.55117 | 19.06774 | 34709 ft | 435 kts | 169° |
| 2026-02-17 12:27 | 48.46309 | 19.10115 | 34712 ft | 435 kts | 169° |
| 2026-02-17 12:27 | 48.40443 | 19.12343 | 34712 ft | 435 kts | 169° |
| 2026-02-17 12:28 | 48.34573 | 19.14571 | 34706 ft | 435 kts | 169° |
| 2026-02-17 12:28 | 48.28702 | 19.16787 | 34704 ft | 435 kts | 169° |
| 2026-02-17 12:29 | 48.22829 | 19.18996 | 34697 ft | 435 kts | 169° |
| 2026-02-17 12:29 | 48.16957 | 19.21206 | 34712 ft | 434 kts | 169° |
| 2026-02-17 12:30 | 48.11097 | 19.23403 | 34711 ft | 434 kts | 169° |
| 2026-02-17 12:31 | 48.02335 | 19.26862 | 34711 ft | 435 kts | 166° |
| 2026-02-17 12:31 | 47.96552 | 19.29587 | 34715 ft | 436 kts | 165° |
| 2026-02-17 12:32 | 47.90778 | 19.32346 | 34714 ft | 436 kts | 166° |
| 2026-02-17 12:32 | 47.84981 | 19.35021 | 34703 ft | 436 kts | 166° |
| 2026-02-17 12:33 | 47.79182 | 19.37651 | 34712 ft | 435 kts | 166° |
| 2026-02-17 12:33 | 47.73388 | 19.40268 | 34724 ft | 435 kts | 166° |
| 2026-02-17 12:34 | 47.67598 | 19.42885 | 34726 ft | 435 kts | 166° |
| 2026-02-17 12:34 | 47.61817 | 19.45512 | 34715 ft | 435 kts | 166° |
| 2026-02-17 12:35 | 47.53134 | 19.49436 | 34723 ft | 435 kts | 166° |
| 2026-02-17 12:35 | 47.47339 | 19.52047 | 34720 ft | 435 kts | 166° |
| 2026-02-17 12:36 | 47.41543 | 19.54650 | 34728 ft | 435 kts | 166° |
| 2026-02-17 12:36 | 47.35759 | 19.57245 | 34722 ft | 434 kts | 166° |
| 2026-02-17 12:37 | 47.29974 | 19.59829 | 34718 ft | 435 kts | 166° |
| 2026-02-17 12:37 | 47.24180 | 19.62403 | 34718 ft | 435 kts | 166° |
| 2026-02-17 12:38 | 47.18388 | 19.64980 | 34722 ft | 435 kts | 166° |
| 2026-02-17 12:39 | 47.09701 | 19.68843 | 34730 ft | 435 kts | 166° |
| 2026-02-17 12:39 | 47.03915 | 19.71402 | 34734 ft | 434 kts | 166° |
| 2026-02-17 12:40 | 46.98133 | 19.73945 | 34734 ft | 433 kts | 166° |
| 2026-02-17 12:40 | 46.92365 | 19.76477 | 34741 ft | 433 kts | 166° |
| 2026-02-17 12:41 | 46.86598 | 19.79015 | 34729 ft | 433 kts | 166° |
| 2026-02-17 12:41 | 46.80866 | 19.81532 | 34730 ft | 433 kts | 166° |
| 2026-02-17 12:42 | 46.75103 | 19.84058 | 34727 ft | 433 kts | 166° |
| 2026-02-17 12:42 | 46.69330 | 19.86574 | 34713 ft | 433 kts | 166° |
| 2026-02-17 12:43 | 46.60680 | 19.90336 | 34707 ft | 432 kts | 166° |
| 2026-02-17 12:43 | 46.54913 | 19.92831 | 34706 ft | 433 kts | 166° |
| 2026-02-17 12:44 | 46.49144 | 19.95330 | 34709 ft | 432 kts | 166° |
| 2026-02-17 12:44 | 46.43379 | 19.97825 | 34703 ft | 433 kts | 166° |
| 2026-02-17 12:45 | 46.37606 | 20.00321 | 34691 ft | 433 kts | 166° |
| 2026-02-17 12:45 | 46.31822 | 20.02807 | 34701 ft | 434 kts | 166° |
| 2026-02-17 12:46 | 46.26036 | 20.05285 | 34697 ft | 434 kts | 166° |
| 2026-02-17 12:47 | 46.17365 | 20.09094 | 34691 ft | 436 kts | 161° |
| 2026-02-17 12:47 | 46.12027 | 20.13347 | 34695 ft | 441 kts | 150° |
| 2026-02-17 12:48 | 46.06825 | 20.18062 | 34700 ft | 442 kts | 151° |
| 2026-02-17 12:48 | 46.01609 | 20.22748 | 34694 ft | 442 kts | 151° |
| 2026-02-17 12:49 | 45.96397 | 20.27422 | 34704 ft | 442 kts | 151° |
| 2026-02-17 12:49 | 45.91178 | 20.32096 | 34700 ft | 442 kts | 151° |
| 2026-02-17 12:50 | 45.85957 | 20.36763 | 34702 ft | 442 kts | 151° |
| 2026-02-17 12:50 | 45.80739 | 20.41417 | 34696 ft | 442 kts | 151° |
| 2026-02-17 12:51 | 45.72913 | 20.48385 | 34694 ft | 441 kts | 151° |
| 2026-02-17 12:51 | 45.67698 | 20.53020 | 34685 ft | 441 kts | 151° |
| 2026-02-17 12:52 | 45.62473 | 20.57639 | 34690 ft | 441 kts | 151° |
| 2026-02-17 12:52 | 45.57246 | 20.62241 | 34683 ft | 442 kts | 151° |
| 2026-02-17 12:53 | 45.52013 | 20.66845 | 34684 ft | 442 kts | 151° |
| 2026-02-17 12:53 | 45.46797 | 20.71439 | 34683 ft | 440 kts | 151° |
| 2026-02-17 12:54 | 45.41583 | 20.76010 | 34678 ft | 440 kts | 152° |
| 2026-02-17 12:55 | 45.33774 | 20.82843 | 34678 ft | 439 kts | 152° |
| 2026-02-17 12:55 | 45.28567 | 20.87387 | 34660 ft | 439 kts | 152° |
| 2026-02-17 12:56 | 45.23359 | 20.91918 | 34661 ft | 438 kts | 152° |
| 2026-02-17 12:56 | 45.18170 | 20.96422 | 34659 ft | 437 kts | 152° |
| 2026-02-17 12:57 | 45.12988 | 21.00915 | 34659 ft | 436 kts | 152° |
| 2026-02-17 12:57 | 45.07805 | 21.05396 | 34655 ft | 436 kts | 152° |
| 2026-02-17 12:58 | 45.02621 | 21.09867 | 34657 ft | 436 kts | 152° |
| 2026-02-17 12:58 | 44.98321 | 21.13574 | 34651 ft | 435 kts | 152° |
| 2026-02-17 12:59 | 44.90569 | 21.20231 | 34653 ft | 435 kts | 152° |
| 2026-02-17 12:59 | 44.85401 | 21.24665 | 34652 ft | 434 kts | 152° |
| 2026-02-17 13:00 | 44.80237 | 21.29088 | 34649 ft | 434 kts | 152° |
| 2026-02-17 13:00 | 44.75068 | 21.33499 | 34641 ft | 434 kts | 152° |
| 2026-02-17 13:01 | 44.69909 | 21.37879 | 34657 ft | 433 kts | 152° |
| 2026-02-17 13:01 | 44.64760 | 21.42250 | 34656 ft | 432 kts | 152° |
| 2026-02-17 13:02 | 44.59625 | 21.46599 | 34649 ft | 431 kts | 152° |
| 2026-02-17 13:03 | 44.51921 | 21.53116 | 34650 ft | 431 kts | 152° |
| 2026-02-17 13:03 | 44.46791 | 21.57451 | 34632 ft | 430 kts | 152° |
| 2026-02-17 13:04 | 44.41660 | 21.61768 | 34638 ft | 430 kts | 152° |
| 2026-02-17 13:04 | 44.36530 | 21.66071 | 34632 ft | 430 kts | 153° |
| 2026-02-17 13:05 | 44.31408 | 21.70357 | 34625 ft | 430 kts | 153° |
| 2026-02-17 13:05 | 44.26277 | 21.74652 | 34609 ft | 429 kts | 153° |
| 2026-02-17 13:06 | 44.21158 | 21.78933 | 34600 ft | 429 kts | 153° |
| 2026-02-17 13:06 | 44.16042 | 21.83198 | 34598 ft | 428 kts | 153° |
| 2026-02-17 13:07 | 44.08372 | 21.89577 | 34586 ft | 428 kts | 153° |
| 2026-02-17 13:07 | 44.03255 | 21.93812 | 34587 ft | 428 kts | 153° |
| 2026-02-17 13:08 | 43.98138 | 21.98034 | 34580 ft | 427 kts | 153° |
| 2026-02-17 13:08 | 43.93032 | 22.02257 | 34597 ft | 427 kts | 153° |
| 2026-02-17 13:09 | 43.87929 | 22.06459 | 34587 ft | 426 kts | 153° |
| 2026-02-17 13:09 | 43.82825 | 22.10647 | 34585 ft | 426 kts | 153° |
| 2026-02-17 13:10 | 43.77723 | 22.14834 | 34589 ft | 426 kts | 153° |
| 2026-02-17 13:11 | 43.70067 | 22.21100 | 34560 ft | 427 kts | 153° |
| 2026-02-17 13:11 | 43.64956 | 22.25273 | 34558 ft | 426 kts | 153° |
| 2026-02-17 13:12 | 43.59848 | 22.29437 | 34557 ft | 427 kts | 153° |
| 2026-02-17 13:12 | 43.54735 | 22.33597 | 34556 ft | 427 kts | 153° |
| 2026-02-17 13:13 | 43.49628 | 22.37746 | 34536 ft | 426 kts | 153° |
| 2026-02-17 13:13 | 43.44550 | 22.41859 | 34537 ft | 426 kts | 153° |
| 2026-02-17 13:14 | 43.39407 | 22.46015 | 34520 ft | 426 kts | 153° |
| 2026-02-17 13:14 | 43.34296 | 22.50131 | 34498 ft | 426 kts | 153° |
| 2026-02-17 13:15 | 43.26668 | 22.56268 | 34489 ft | 426 kts | 153° |
| 2026-02-17 13:15 | 43.21552 | 22.60375 | 34469 ft | 426 kts | 153° |
| 2026-02-17 13:16 | 43.16433 | 22.64474 | 34466 ft | 427 kts | 153° |
| 2026-02-17 13:16 | 43.11305 | 22.68576 | 34459 ft | 427 kts | 153° |
| 2026-02-17 13:17 | 43.06170 | 22.72670 | 34429 ft | 427 kts | 153° |
| 2026-02-17 13:17 | 43.01041 | 22.76752 | 34440 ft | 427 kts | 153° |
| 2026-02-17 13:18 | 42.96092 | 22.81249 | 34431 ft | 432 kts | 141° |
| 2026-02-17 13:19 | 42.89495 | 22.89628 | 34433 ft | 432 kts | 141° |
| 2026-02-17 13:19 | 42.85088 | 22.95196 | 34414 ft | 432 kts | 141° |
| 2026-02-17 13:20 | 42.80683 | 23.00756 | 34422 ft | 432 kts | 141° |
| 2026-02-17 13:20 | 42.76275 | 23.06302 | 34420 ft | 432 kts | 141° |
| 2026-02-17 13:21 | 42.71860 | 23.11842 | 34422 ft | 431 kts | 141° |
| 2026-02-17 13:21 | 42.67451 | 23.17378 | 34404 ft | 431 kts | 141° |
| 2026-02-17 13:22 | 42.63044 | 23.22910 | 34408 ft | 431 kts | 141° |
| 2026-02-17 13:22 | 42.58626 | 23.28423 | 34412 ft | 431 kts | 141° |
| 2026-02-17 13:23 | 42.52001 | 23.36670 | 34409 ft | 431 kts | 142° |
| 2026-02-17 13:23 | 42.47586 | 23.42165 | 34409 ft | 431 kts | 142° |
| 2026-02-17 13:24 | 42.43160 | 23.47641 | 34411 ft | 431 kts | 142° |
| 2026-02-17 13:24 | 42.38741 | 23.53104 | 34424 ft | 430 kts | 142° |
| 2026-02-17 13:25 | 42.34324 | 23.58564 | 34417 ft | 430 kts | 142° |
| 2026-02-17 13:25 | 42.29912 | 23.64010 | 34421 ft | 430 kts | 142° |
| 2026-02-17 13:26 | 42.25491 | 23.69446 | 34423 ft | 430 kts | 142° |
| 2026-02-17 13:27 | 42.18861 | 23.77585 | 34413 ft | 430 kts | 142° |
| 2026-02-17 13:27 | 42.14438 | 23.83002 | 34416 ft | 429 kts | 142° |
| 2026-02-17 13:28 | 42.10011 | 23.88410 | 34426 ft | 430 kts | 142° |
| 2026-02-17 13:28 | 42.05584 | 23.93815 | 34429 ft | 429 kts | 142° |
| 2026-02-17 13:29 | 42.01156 | 23.99202 | 34416 ft | 429 kts | 142° |
| 2026-02-17 13:29 | 41.96720 | 24.04580 | 34417 ft | 430 kts | 142° |
| 2026-02-17 13:30 | 41.92290 | 24.09958 | 34404 ft | 430 kts | 143° |
| 2026-02-17 13:30 | 41.87853 | 24.15332 | 34409 ft | 429 kts | 143° |
| 2026-02-17 13:31 | 41.81185 | 24.23363 | 34416 ft | 429 kts | 143° |
| 2026-02-17 13:31 | 41.76744 | 24.28718 | 34414 ft | 429 kts | 143° |
| 2026-02-17 13:32 | 41.72310 | 24.34062 | 34413 ft | 429 kts | 143° |
| 2026-02-17 13:32 | 41.67868 | 24.39384 | 34388 ft | 429 kts | 143° |
| 2026-02-17 13:33 | 41.63420 | 24.44700 | 34407 ft | 428 kts | 143° |
| 2026-02-17 13:33 | 41.58983 | 24.50010 | 34409 ft | 428 kts | 143° |
| 2026-02-17 13:34 | 41.54548 | 24.55316 | 34408 ft | 428 kts | 143° |
| 2026-02-17 13:35 | 41.47890 | 24.63224 | 34395 ft | 427 kts | 144° |
| 2026-02-17 13:35 | 41.43480 | 24.68451 | 34394 ft | 427 kts | 144° |
| 2026-02-17 13:36 | 41.39041 | 24.73712 | 34394 ft | 427 kts | 144° |
| 2026-02-17 13:36 | 41.34604 | 24.78973 | 34396 ft | 427 kts | 144° |
| 2026-02-17 13:37 | 41.30168 | 24.84223 | 34395 ft | 427 kts | 144° |
| 2026-02-17 13:37 | 41.25728 | 24.89464 | 34384 ft | 426 kts | 144° |
| 2026-02-17 13:38 | 41.21297 | 24.94686 | 34373 ft | 426 kts | 144° |
| 2026-02-17 13:38 | 41.16860 | 24.99895 | 34379 ft | 426 kts | 144° |
| 2026-02-17 13:39 | 41.10207 | 25.07693 | 34376 ft | 424 kts | 144° |
| 2026-02-17 13:39 | 41.05787 | 25.12865 | 34377 ft | 424 kts | 144° |
| 2026-02-17 13:40 | 41.01368 | 25.18021 | 34379 ft | 423 kts | 144° |
| 2026-02-17 13:40 | 40.96952 | 25.23175 | 34377 ft | 423 kts | 145° |
| 2026-02-17 13:41 | 40.92533 | 25.28314 | 34374 ft | 423 kts | 144° |
| 2026-02-17 13:41 | 40.88116 | 25.33455 | 34348 ft | 423 kts | 145° |
| 2026-02-17 13:42 | 40.83697 | 25.38580 | 34367 ft | 423 kts | 146° |
| 2026-02-17 13:43 | 40.77955 | 25.45628 | 34382 ft | 429 kts | 137° |
| 2026-02-17 13:43 | 40.74077 | 25.51610 | 34382 ft | 429 kts | 137° |
| 2026-02-17 13:44 | 40.70187 | 25.57567 | 34381 ft | 429 kts | 137° |
| 2026-02-17 13:44 | 40.66290 | 25.63519 | 34373 ft | 429 kts | 137° |
| 2026-02-17 13:45 | 40.62407 | 25.69455 | 34393 ft | 427 kts | 138° |
| 2026-02-17 13:45 | 40.58544 | 25.75357 | 34407 ft | 425 kts | 138° |
| 2026-02-17 13:46 | 40.54681 | 25.81235 | 34418 ft | 424 kts | 139° |
| 2026-02-17 13:46 | 40.50827 | 25.87077 | 34419 ft | 423 kts | 139° |
| 2026-02-17 13:47 | 40.45037 | 25.95802 | 34396 ft | 422 kts | 139° |
| 2026-02-17 13:47 | 40.41163 | 26.01576 | 34406 ft | 421 kts | 139° |
| 2026-02-17 13:48 | 40.37287 | 26.07342 | 34394 ft | 421 kts | 139° |
| 2026-02-17 13:48 | 40.33410 | 26.13110 | 34398 ft | 422 kts | 139° |
| 2026-02-17 13:49 | 40.29528 | 26.18879 | 34414 ft | 423 kts | 139° |
| 2026-02-17 13:49 | 40.25636 | 26.24649 | 34414 ft | 422 kts | 139° |
| 2026-02-17 13:50 | 40.21750 | 26.30407 | 34418 ft | 422 kts | 140° |
| 2026-02-17 13:51 | 40.15898 | 26.39052 | 34426 ft | 424 kts | 140° |
| 2026-02-17 13:51 | 40.11951 | 26.44757 | 34435 ft | 422 kts | 142° |
| 2026-02-17 13:52 | 40.07804 | 26.50136 | 34439 ft | 419 kts | 144° |
| 2026-02-17 13:52 | 40.03580 | 26.55400 | 34427 ft | 420 kts | 144° |
| 2026-02-17 13:53 | 39.99347 | 26.60729 | 34435 ft | 426 kts | 143° |
| 2026-02-17 13:53 | 39.95111 | 26.66166 | 34447 ft | 428 kts | 142° |
| 2026-02-17 13:54 | 39.90904 | 26.71576 | 34449 ft | 428 kts | 143° |
| 2026-02-17 13:54 | 39.86655 | 26.77011 | 34465 ft | 428 kts | 143° |
| 2026-02-17 13:55 | 39.80263 | 26.85122 | 34473 ft | 428 kts | 143° |
| 2026-02-17 13:55 | 39.76000 | 26.90521 | 34449 ft | 428 kts | 143° |
| 2026-02-17 13:56 | 39.71668 | 26.95876 | 34486 ft | 430 kts | 144° |
| 2026-02-17 13:56 | 39.67304 | 27.01190 | 34497 ft | 431 kts | 144° |
| 2026-02-17 13:57 | 39.62937 | 27.06516 | 34502 ft | 431 kts | 144° |
| 2026-02-17 13:57 | 39.58575 | 27.11844 | 34505 ft | 431 kts | 144° |
| 2026-02-17 13:58 | 39.54216 | 27.17166 | 34508 ft | 430 kts | 144° |
| 2026-02-17 13:59 | 39.47916 | 27.25533 | 34504 ft | 439 kts | 136° |
| 2026-02-17 13:59 | 39.44031 | 27.31632 | 34504 ft | 439 kts | 136° |
| 2026-02-17 14:00 | 39.40137 | 27.37735 | 34521 ft | 440 kts | 136° |
| 2026-02-17 14:00 | 39.36231 | 27.43830 | 34525 ft | 440 kts | 136° |
| 2026-02-17 14:01 | 39.32321 | 27.49925 | 34515 ft | 441 kts | 136° |
| 2026-02-17 14:01 | 39.28403 | 27.56028 | 34519 ft | 442 kts | 137° |
| 2026-02-17 14:02 | 39.24466 | 27.62134 | 34533 ft | 443 kts | 137° |
| 2026-02-17 14:02 | 39.20517 | 27.68251 | 34540 ft | 444 kts | 137° |
| 2026-02-17 14:03 | 39.14579 | 27.77426 | 34551 ft | 445 kts | 137° |
| 2026-02-17 14:03 | 39.10618 | 27.83538 | 34558 ft | 444 kts | 137° |
| 2026-02-17 14:04 | 39.06658 | 27.89643 | 34562 ft | 444 kts | 137° |
| 2026-02-17 14:04 | 39.02690 | 27.95739 | 34568 ft | 444 kts | 137° |
| 2026-02-17 14:05 | 38.98722 | 28.01825 | 34580 ft | 445 kts | 137° |
| 2026-02-17 14:05 | 38.94746 | 28.07915 | 34562 ft | 444 kts | 137° |
| 2026-02-17 14:06 | 38.90764 | 28.13997 | 34564 ft | 445 kts | 137° |
| 2026-02-17 14:07 | 38.84764 | 28.23134 | 34579 ft | 447 kts | 137° |
| 2026-02-17 14:07 | 38.80750 | 28.29234 | 34585 ft | 448 kts | 137° |
| 2026-02-17 14:08 | 38.76732 | 28.35339 | 34577 ft | 448 kts | 137° |
| 2026-02-17 14:08 | 38.72705 | 28.41441 | 34573 ft | 449 kts | 137° |
| 2026-02-17 14:09 | 38.68657 | 28.47551 | 34592 ft | 450 kts | 137° |
| 2026-02-17 14:09 | 38.64610 | 28.53658 | 34598 ft | 450 kts | 137° |
| 2026-02-17 14:10 | 38.60558 | 28.59765 | 34623 ft | 450 kts | 137° |
| 2026-02-17 14:10 | 38.56111 | 28.65198 | 34623 ft | 435 kts | 153° |
| 2026-02-17 14:11 | 38.48678 | 28.71829 | 34597 ft | 435 kts | 152° |
| 2026-02-17 14:11 | 38.43722 | 28.76267 | 34610 ft | 435 kts | 152° |
| 2026-02-17 14:12 | 38.38768 | 28.80694 | 34626 ft | 435 kts | 152° |
| 2026-02-17 14:12 | 38.33808 | 28.85108 | 34629 ft | 434 kts | 152° |
| 2026-02-17 14:13 | 38.28857 | 28.89518 | 34635 ft | 434 kts | 152° |
| 2026-02-17 14:13 | 38.23936 | 28.93895 | 34639 ft | 434 kts | 152° |
| 2026-02-17 14:14 | 38.18961 | 28.98315 | 34631 ft | 433 kts | 153° |
| 2026-02-17 14:15 | 38.11586 | 29.04833 | 34654 ft | 432 kts | 153° |
| 2026-02-17 14:15 | 38.06659 | 29.09186 | 34657 ft | 431 kts | 153° |
| 2026-02-17 14:16 | 38.01740 | 29.13528 | 34661 ft | 431 kts | 153° |
| 2026-02-17 14:16 | 37.96820 | 29.17860 | 34656 ft | 430 kts | 153° |
| 2026-02-17 14:17 | 37.91902 | 29.22183 | 34622 ft | 430 kts | 153° |
| 2026-02-17 14:17 | 37.86979 | 29.26503 | 34645 ft | 431 kts | 153° |
| 2026-02-17 14:18 | 37.82043 | 29.30823 | 34675 ft | 431 kts | 153° |
| 2026-02-17 14:18 | 37.77116 | 29.35135 | 34680 ft | 431 kts | 153° |
| 2026-02-17 14:19 | 37.69719 | 29.41592 | 34698 ft | 431 kts | 153° |
| 2026-02-17 14:19 | 37.64789 | 29.45890 | 34669 ft | 430 kts | 153° |
| 2026-02-17 14:20 | 37.59857 | 29.50179 | 34685 ft | 431 kts | 153° |
| 2026-02-17 14:20 | 37.54925 | 29.54466 | 34660 ft | 431 kts | 154° |
| 2026-02-17 14:21 | 37.49987 | 29.58749 | 34689 ft | 431 kts | 154° |
| 2026-02-17 14:21 | 37.45054 | 29.63018 | 34710 ft | 430 kts | 154° |
| 2026-02-17 14:22 | 37.37669 | 29.69411 | 34690 ft | 430 kts | 154° |
| 2026-02-17 14:23 | 37.30284 | 29.75779 | 34713 ft | 429 kts | 154° |
| 2026-02-17 14:23 | 37.25358 | 29.80021 | 34724 ft | 429 kts | 154° |
| 2026-02-17 14:24 | 37.20429 | 29.84257 | 34709 ft | 429 kts | 154° |
| 2026-02-17 14:24 | 37.15503 | 29.88479 | 34722 ft | 429 kts | 154° |
| 2026-02-17 14:25 | 37.10580 | 29.92706 | 34717 ft | 429 kts | 154° |
| 2026-02-17 14:25 | 37.05646 | 29.96930 | 34736 ft | 430 kts | 154° |
| 2026-02-17 14:26 | 37.00707 | 30.01163 | 34738 ft | 430 kts | 154° |
| 2026-02-17 14:27 | 36.93336 | 30.07478 | 34758 ft | 430 kts | 154° |
| 2026-02-17 14:27 | 36.88395 | 30.11686 | 34731 ft | 430 kts | 155° |
| 2026-02-17 14:28 | 36.83455 | 30.15881 | 34706 ft | 430 kts | 154° |
| 2026-02-17 14:28 | 36.79299 | 30.19396 | 34759 ft | 432 kts | 154° |
| 2026-02-17 14:29 | 36.74331 | 30.23606 | 34757 ft | 431 kts | 154° |
| 2026-02-17 14:29 | 36.69368 | 30.27807 | 34760 ft | 431 kts | 155° |
| 2026-02-17 14:30 | 36.64451 | 30.31965 | 34756 ft | 430 kts | 155° |
| 2026-02-17 14:31 | 36.54491 | 30.40361 | 34755 ft | 430 kts | 155° |
| 2026-02-17 14:31 | 36.49566 | 30.44493 | 34783 ft | 430 kts | 155° |
| 2026-02-17 14:32 | 36.44612 | 30.48650 | 34788 ft | 429 kts | 155° |
| 2026-02-17 14:32 | 36.39666 | 30.52791 | 34795 ft | 429 kts | 155° |
| 2026-02-17 14:33 | 36.34727 | 30.56936 | 34795 ft | 428 kts | 155° |
| 2026-02-17 14:33 | 36.27314 | 30.63118 | 34776 ft | 428 kts | 155° |
| 2026-02-17 14:34 | 36.22372 | 30.67234 | 34790 ft | 429 kts | 155° |
| 2026-02-17 14:35 | 36.14944 | 30.73411 | 34809 ft | 428 kts | 155° |
| 2026-02-17 14:35 | 36.10002 | 30.77522 | 34793 ft | 427 kts | 156° |
| 2026-02-17 14:36 | 36.04952 | 30.81226 | 34802 ft | 413 kts | 167° |
| 2026-02-17 14:36 | 36.02252 | 30.82275 | 34810 ft | 402 kts | 177° |
| 2026-02-17 14:36 | 35.99522 | 30.82728 | 34806 ft | 392 kts | 185° |
| 2026-02-17 14:37 | 35.94066 | 30.83025 | 34819 ft | 393 kts | 185° |
| 2026-02-17 14:37 | 35.88610 | 30.83363 | 34824 ft | 393 kts | 185° |
| 2026-02-17 14:38 | 35.83156 | 30.83707 | 34825 ft | 393 kts | 185° |
| 2026-02-17 14:38 | 35.77696 | 30.84046 | 34809 ft | 393 kts | 185° |
| 2026-02-17 14:39 | 35.69486 | 30.84537 | 34839 ft | 394 kts | 185° |
| 2026-02-17 14:39 | 35.66778 | 30.84961 | 34839 ft | 405 kts | 173° |
| 2026-02-17 14:39 | 35.64153 | 30.86278 | 34838 ft | 423 kts | 158° |
| 2026-02-17 14:40 | 35.61840 | 30.88543 | 34833 ft | 442 kts | 141° |
| 2026-02-17 14:40 | 35.60070 | 30.91726 | 34834 ft | 463 kts | 122° |
| 2026-02-17 14:40 | 35.58013 | 30.99357 | 34838 ft | 475 kts | 115° |
| 2026-02-17 14:41 | 35.57038 | 31.03248 | 34839 ft | 477 kts | 115° |
| 2026-02-17 14:41 | 35.55083 | 31.11033 | 34848 ft | 477 kts | 115° |
| 2026-02-17 14:42 | 35.53110 | 31.18813 | 34858 ft | 477 kts | 115° |
| 2026-02-17 14:42 | 35.51126 | 31.26581 | 34828 ft | 477 kts | 115° |
| 2026-02-17 14:43 | 35.48135 | 31.38240 | 34853 ft | 478 kts | 116° |
| 2026-02-17 14:43 | 35.46134 | 31.46011 | 34832 ft | 478 kts | 116° |
| 2026-02-17 14:44 | 35.45118 | 31.49925 | 34031 ft | 485 kts | 116° |
| 2026-02-17 14:44 | 35.44088 | 31.53881 | 33207 ft | 487 kts | 116° |
| 2026-02-17 14:44 | 35.43074 | 31.57814 | 32696 ft | 482 kts | 115° |
| 2026-02-17 14:44 | 35.42072 | 31.61717 | 32103 ft | 478 kts | 115° |
| 2026-02-17 14:45 | 35.41077 | 31.65586 | 31547 ft | 475 kts | 114° |
| 2026-02-17 14:45 | 35.40079 | 31.69439 | 30983 ft | 472 kts | 114° |
| 2026-02-17 14:45 | 35.39085 | 31.73263 | 30428 ft | 469 kts | 113° |
| 2026-02-17 14:45 | 35.38094 | 31.77056 | 29949 ft | 465 kts | 113° |
| 2026-02-17 14:46 | 35.37107 | 31.80821 | 29270 ft | 463 kts | 113° |
| 2026-02-17 14:46 | 35.36133 | 31.84535 | 28900 ft | 453 kts | 114° |
| 2026-02-17 14:46 | 35.35172 | 31.88199 | 28299 ft | 451 kts | 113° |
| 2026-02-17 14:47 | 35.33270 | 31.95436 | 27300 ft | 442 kts | 113° |
| 2026-02-17 14:47 | 35.32329 | 31.99008 | 26803 ft | 439 kts | 113° |
| 2026-02-17 14:47 | 35.31395 | 32.02548 | 26328 ft | 435 kts | 113° |
| 2026-02-17 14:47 | 35.30469 | 32.06063 | 25861 ft | 432 kts | 112° |
| 2026-02-17 14:48 | 35.29553 | 32.09553 | 25390 ft | 429 kts | 112° |
| 2026-02-17 14:48 | 35.28647 | 32.13019 | 24920 ft | 427 kts | 112° |
| 2026-02-17 14:48 | 35.27747 | 32.16471 | 24436 ft | 425 kts | 112° |
| 2026-02-17 14:48 | 35.26847 | 32.19912 | 23943 ft | 424 kts | 112° |
| 2026-02-17 14:49 | 35.25946 | 32.23351 | 23439 ft | 423 kts | 111° |
| 2026-02-17 14:49 | 35.25063 | 32.26726 | 22902 ft | 422 kts | 111° |
| 2026-02-17 14:49 | 35.24173 | 32.30126 | 22424 ft | 418 kts | 111° |
| 2026-02-17 14:49 | 35.23290 | 32.33503 | 21994 ft | 414 kts | 112° |
| 2026-02-17 14:50 | 35.22414 | 32.36844 | 21481 ft | 412 kts | 112° |
| 2026-02-17 14:50 | 35.21541 | 32.40152 | 21036 ft | 408 kts | 112° |
| 2026-02-17 14:50 | 35.20671 | 32.43436 | 20642 ft | 404 kts | 112° |
| 2026-02-17 14:51 | 35.18944 | 32.49929 | 19711 ft | 399 kts | 112° |
| 2026-02-17 14:51 | 35.18094 | 32.53132 | 19400 ft | 393 kts | 112° |
| 2026-02-17 14:51 | 35.17257 | 32.56286 | 18792 ft | 389 kts | 112° |
| 2026-02-17 14:51 | 35.16422 | 32.59433 | 18403 ft | 386 kts | 113° |
| 2026-02-17 14:52 | 35.15591 | 32.62550 | 17915 ft | 385 kts | 113° |
| 2026-02-17 14:52 | 35.14770 | 32.65637 | 17549 ft | 380 kts | 113° |
| 2026-02-17 14:52 | 35.13953 | 32.68705 | 17155 ft | 377 kts | 113° |
| 2026-02-17 14:52 | 35.13143 | 32.71739 | 16668 ft | 377 kts | 113° |
| 2026-02-17 14:53 | 35.12336 | 32.74752 | 16414 ft | 370 kts | 112° |
| 2026-02-17 14:53 | 35.11541 | 32.77727 | 16001 ft | 367 kts | 112° |
| 2026-02-17 14:53 | 35.10752 | 32.80683 | 15606 ft | 365 kts | 112° |
| 2026-02-17 14:53 | 35.09967 | 32.83618 | 15218 ft | 362 kts | 112° |
| 2026-02-17 14:54 | 35.09187 | 32.86526 | 14840 ft | 359 kts | 112° |
| 2026-02-17 14:54 | 35.08416 | 32.89393 | 14286 ft | 354 kts | 112° |
| 2026-02-17 14:54 | 35.07661 | 32.92207 | 13891 ft | 344 kts | 112° |
| 2026-02-17 14:55 | 35.06179 | 32.97602 | 13105 ft | 325 kts | 113° |
| 2026-02-17 14:55 | 35.05441 | 33.00167 | 12751 ft | 316 kts | 113° |
| 2026-02-17 14:55 | 35.04705 | 33.02691 | 12386 ft | 316 kts | 114° |
| 2026-02-17 14:55 | 35.03968 | 33.05212 | 12019 ft | 315 kts | 114° |
| 2026-02-17 14:56 | 35.03236 | 33.07724 | 11650 ft | 313 kts | 113° |
| 2026-02-17 14:56 | 35.02508 | 33.10227 | 11281 ft | 313 kts | 113° |
| 2026-02-17 14:56 | 35.01784 | 33.12723 | 10903 ft | 312 kts | 113° |
| 2026-02-17 14:56 | 35.01065 | 33.15210 | 10526 ft | 311 kts | 113° |
| 2026-02-17 14:57 | 35.00347 | 33.17694 | 10151 ft | 310 kts | 112° |
| 2026-02-17 14:57 | 34.99632 | 33.20166 | 9821 ft | 306 kts | 112° |
| 2026-02-17 14:57 | 34.98925 | 33.22614 | 9416 ft | 305 kts | 112° |
| 2026-02-17 14:57 | 34.98221 | 33.25046 | 8974 ft | 305 kts | 112° |
| 2026-02-17 14:58 | 34.97521 | 33.27472 | 8586 ft | 303 kts | 112° |
| 2026-02-17 14:58 | 34.96823 | 33.29881 | 8258 ft | 299 kts | 112° |
| 2026-02-17 14:58 | 34.96132 | 33.32268 | 7812 ft | 298 kts | 112° |
| 2026-02-17 14:59 | 34.94760 | 33.37006 | 7011 ft | 295 kts | 113° |
| 2026-02-17 14:59 | 34.94073 | 33.39359 | 6647 ft | 292 kts | 113° |
| 2026-02-17 14:59 | 34.93404 | 33.41683 | 6263 ft | 290 kts | 110° |
| 2026-02-17 14:59 | 34.93067 | 33.44116 | 5762 ft | 294 kts | 94° |
| 2026-02-17 15:00 | 34.93236 | 33.46604 | 5339 ft | 295 kts | 83° |
| 2026-02-17 15:00 | 34.93533 | 33.49074 | 4863 ft | 295 kts | 83° |
| 2026-02-17 15:00 | 34.93826 | 33.51539 | 4437 ft | 291 kts | 84° |
| 2026-02-17 15:00 | 34.94361 | 33.53876 | 3856 ft | 286 kts | 63° |
| 2026-02-17 15:01 | 34.95397 | 33.55927 | 3233 ft | 283 kts | 56° |
| 2026-02-17 15:01 | 34.96472 | 33.57856 | 3034 ft | 264 kts | 56° |
| 2026-02-17 15:01 | 34.97471 | 33.59627 | 2999 ft | 246 kts | 55° |
| 2026-02-17 15:01 | 34.98426 | 33.61319 | 3007 ft | 241 kts | 56° |
| 2026-02-17 15:02 | 34.99364 | 33.62966 | 3005 ft | 235 kts | 56° |
| 2026-02-17 15:02 | 35.00303 | 33.64610 | 2878 ft | 229 kts | 56° |
| 2026-02-17 15:02 | 35.00892 | 33.66313 | 2745 ft | 217 kts | 87° |
| 2026-02-17 15:03 | 34.99858 | 33.69558 | 2113 ft | 211 kts | 134° |
| 2026-02-17 15:03 | 34.98918 | 33.70954 | 1728 ft | 213 kts | 144° |
| 2026-02-17 15:03 | 34.97660 | 33.71780 | 1494 ft | 199 kts | 171° |
| 2026-02-17 15:03 | 34.96357 | 33.71928 | 1526 ft | 179 kts | 191° |
| 2026-02-17 15:04 | 34.95232 | 33.71587 | 1522 ft | 158 kts | 207° |
| 2026-02-17 15:04 | 34.94361 | 33.70929 | 1457 ft | 140 kts | 223° |
| 2026-02-17 15:04 | 34.93692 | 33.70125 | 1366 ft | 132 kts | 226° |
| 2026-02-17 15:04 | 34.93053 | 33.69344 | 1248 ft | 128 kts | 227° |
| 2026-02-17 15:05 | 34.92421 | 33.68569 | 1104 ft | 131 kts | 226° |
| 2026-02-17 15:05 | 34.91776 | 33.67777 | 939 ft | 130 kts | 225° |
| 2026-02-17 15:05 | 34.91144 | 33.66999 | 783 ft | 129 kts | 223° |
| 2026-02-17 15:05 | 34.90515 | 33.66228 | 620 ft | 129 kts | 224° |
| 2026-02-17 15:06 | 34.89864 | 33.65429 | 465 ft | 133 kts | 223° |
| 2026-02-17 15:06 | 34.89231 | 33.64655 | 316 ft | 127 kts | 225° |
| 2026-02-17 15:06 | 34.88609 | 33.63893 | 168 ft | 127 kts | 225° |
| 2026-02-17 15:07 | 34.87470 | 33.62510 | 16 ft | 82 kts | 225° |
| 2026-02-17 15:07 | 34.87184 | 33.62160 | 20 ft | 36 kts | 225° |
| 2026-02-17 15:07 | 34.87055 | 33.61999 | 21 ft | 23 kts | 231° |
| 2026-02-17 15:07 | 34.86983 | 33.61840 | 23 ft | 21 kts | 247° |
| 2026-02-17 15:08 | 34.86943 | 33.61670 | 22 ft | 21 kts | 253° |
| 2026-02-17 15:08 | 34.86912 | 33.61520 | 19 ft | 15 kts | 256° |
| 2026-02-17 15:08 | 34.86881 | 33.61415 | 20 ft | 12 kts | 249° |
| 2026-02-17 15:08 | 34.86899 | 33.61315 | 17 ft | 13 kts | 245° |
| 2026-02-17 15:09 | 34.86828 | 33.61224 | 17 ft | 16 kts | 225° |
| 2026-02-17 15:09 | 34.86747 | 33.61125 | 20 ft | 17 kts | 225° |
| 2026-02-17 15:09 | 34.86692 | 33.61040 | 21 ft | 10 kts | 266° |
| 2026-02-17 15:09 | 34.86737 | 33.60963 | 20 ft | 8 kts | 315° |
| 2026-02-17 15:10 | 34.86774 | 33.60978 | 20 ft | 8 kts | 61° |
| 2026-02-17 15:10 | 34.86793 | 33.61022 | 20 ft | 2 kts | 62° |
| 2026-02-17 15:10 | 34.86798 | 33.61034 | 20 ft | 0 kts | 62° |